createdAt,value
2022-10-22T00:01:20.141Z,7.60
2022-10-22T00:06:22.216Z,8.98
2022-10-22T00:08:56.167Z,7.50
2022-10-22T00:11:23.386Z,7.35
2022-10-22T00:13:51.246Z,7.30
2022-10-22T00:16:25.067Z,7.65
2022-10-22T00:18:59.037Z,7.75
2022-10-22T00:21:36.391Z,7.93
2022-10-22T00:24:10.091Z,6.95
2022-10-22T00:26:51.041Z,8.75
2022-10-22T00:29:31.112Z,10.75
2022-10-22T00:32:05.021Z,6.07
2022-10-22T00:34:32.472Z,6.47
2022-10-22T00:37:06.039Z,6.43
2022-10-22T00:39:40.051Z,6.93
2022-10-22T00:42:07.341Z,7.32
2022-10-22T00:45:09.570Z,10.05
2022-10-22T00:47:58.169Z,8.63
2022-10-22T00:50:43.178Z,7.72
2022-10-22T00:53:17.999Z,6.15
2022-10-22T00:55:55.081Z,7.15
2022-10-22T00:58:26.878Z,7.97
2022-10-22T01:01:02.235Z,8.45
2022-10-22T01:03:29.818Z,6.80
2022-10-22T01:06:10.178Z,8.55
2022-10-22T01:09:10.395Z,7.00
2022-10-22T01:12:15.439Z,8.63
2022-10-22T01:15:36.939Z,7.40
2022-10-22T01:18:18.292Z,8.45
2022-10-22T01:21:38.152Z,6.63
2022-10-22T01:24:54.070Z,9.20
2022-10-22T01:28:15.200Z,7.70
2022-10-22T01:30:45.269Z,8.20
2022-10-22T01:33:22.087Z,8.00
2022-10-22T01:35:50.849Z,8.18
2022-10-22T01:38:29.530Z,7.93
2022-10-22T01:40:57.820Z,8.55
2022-10-22T01:43:32.430Z,7.65
2022-10-22T01:46:04.021Z,8.43
2022-10-22T01:49:20.079Z,6.82
2022-10-22T01:52:00.879Z,6.32
2022-10-22T01:54:51.189Z,7.63
2022-10-22T01:57:44.688Z,10.18
2022-10-22T02:00:24.439Z,8.05
2022-10-22T02:03:37.119Z,7.13
2022-10-22T02:06:10.397Z,8.30
2022-10-22T02:08:46.220Z,6.15
2022-10-22T02:11:16.171Z,7.97
2022-10-22T02:14:00.458Z,7.68
2022-10-22T02:16:46.521Z,8.65
2022-10-22T02:19:26.150Z,6.38
2022-10-22T02:22:01.149Z,7.00
2022-10-22T02:24:28.798Z,6.13
2022-10-22T02:27:40.148Z,8.15
2022-10-22T02:30:18.419Z,7.95
2022-10-22T02:33:10.155Z,8.60
2022-10-22T02:35:48.147Z,7.75
2022-10-22T02:38:23.220Z,5.20
2022-10-22T02:43:25.770Z,6.85
2022-10-22T02:46:00.459Z,7.32
2022-10-22T02:48:27.731Z,8.18
2022-10-22T02:51:01.219Z,9.40
2022-10-22T02:53:28.593Z,8.35
2022-10-22T02:56:02.119Z,8.32
2022-10-22T02:58:29.588Z,7.38
2022-10-22T03:01:03.205Z,6.65
2022-10-22T03:03:30.688Z,6.68
2022-10-22T03:05:58.080Z,6.65
2022-10-22T03:08:32.235Z,4.75
2022-10-22T03:10:59.540Z,7.43
2022-10-22T03:13:26.700Z,7.78
2022-10-22T03:16:00.430Z,5.63
2022-10-22T03:18:27.620Z,6.32
2022-10-22T03:21:38.303Z,7.75
2022-10-22T03:24:20.339Z,6.63
2022-10-22T03:27:07.619Z,7.07
2022-10-22T03:29:47.190Z,8.27
2022-10-22T03:32:21.128Z,7.32
2022-10-22T03:34:48.376Z,9.35
2022-10-22T03:37:22.141Z,7.93
2022-10-22T03:39:50.000Z,8.32
2022-10-22T03:42:24.319Z,6.93
2022-10-22T03:44:58.310Z,7.03
2022-10-22T03:47:32.239Z,7.63
2022-10-22T03:49:59.679Z,9.40
2022-10-22T03:52:26.929Z,9.25
2022-10-22T03:55:01.522Z,9.57
2022-10-22T03:57:28.700Z,6.97
2022-10-22T04:00:03.075Z,7.32
2022-10-22T04:02:30.489Z,8.18
2022-10-22T04:05:04.241Z,8.65
2022-10-22T04:07:31.477Z,7.53
2022-10-22T04:10:05.079Z,6.57
2022-10-22T04:12:32.709Z,10.30
2022-10-22T04:15:06.220Z,10.20
2022-10-22T04:17:38.771Z,9.00
2022-10-22T04:20:13.149Z,6.68
2022-10-22T04:22:40.320Z,6.97
2022-10-22T04:25:14.180Z,7.45
2022-10-22T04:27:48.561Z,8.32
2022-10-22T04:30:21.929Z,9.75
2022-10-22T04:32:56.249Z,9.57
2022-10-22T04:35:30.199Z,9.80
2022-10-22T04:38:05.439Z,10.02
2022-10-22T04:40:32.679Z,8.52
2022-10-22T04:43:06.379Z,8.50
2022-10-22T04:45:35.538Z,8.00
2022-10-22T04:48:09.159Z,10.13
2022-10-22T04:50:36.480Z,8.57
2022-10-22T04:53:03.693Z,9.93
2022-10-22T04:55:37.243Z,9.52
2022-10-22T04:58:05.386Z,8.70
2022-10-22T05:00:39.207Z,11.50
2022-10-22T05:03:14.629Z,12.95
2022-10-22T05:05:42.090Z,11.70
2022-10-22T05:08:16.100Z,11.15
2022-10-22T05:10:43.308Z,11.35
2022-10-22T05:13:17.201Z,13.05
2022-10-22T05:15:44.402Z,11.80
2022-10-22T05:18:21.775Z,10.55
2022-10-22T05:20:49.949Z,10.52
2022-10-22T05:23:24.204Z,11.73
2022-10-22T05:25:51.349Z,13.20
2022-10-22T05:28:32.187Z,10.43
2022-10-22T05:31:08.111Z,11.32
2022-10-22T05:33:42.118Z,11.48
2022-10-22T05:36:20.167Z,12.65
2022-10-22T05:38:47.658Z,10.13
2022-10-22T05:41:27.449Z,10.38
2022-10-22T05:44:00.058Z,10.02
2022-10-22T05:46:37.149Z,8.85
2022-10-22T05:49:08.674Z,8.73
2022-10-22T05:51:44.371Z,8.48
2022-10-22T05:54:22.769Z,8.50
2022-10-22T05:56:56.099Z,9.90
2022-10-22T05:59:23.709Z,8.95
2022-10-22T06:01:57.228Z,14.35
2022-10-22T06:04:31.159Z,11.23
2022-10-22T06:06:58.642Z,11.15
2022-10-22T06:09:40.190Z,10.02
2022-10-22T06:12:11.218Z,10.90
2022-10-22T06:14:45.090Z,8.60
2022-10-22T06:17:14.358Z,11.80
2022-10-22T06:19:49.233Z,12.48
2022-10-22T06:22:23.196Z,10.02
2022-10-22T06:24:57.249Z,8.15
2022-10-22T06:27:31.578Z,13.13
2022-10-22T06:30:05.228Z,10.30
2022-10-22T06:32:39.382Z,9.80
2022-10-22T06:35:07.671Z,10.75
2022-10-22T06:37:41.296Z,9.73
2022-10-22T06:40:09.538Z,10.25
2022-10-22T06:42:43.484Z,9.43
2022-10-22T06:45:11.560Z,9.93
2022-10-22T06:47:45.599Z,11.63
2022-10-22T06:50:12.861Z,9.63
2022-10-22T06:52:47.159Z,7.90
2022-10-22T06:55:14.680Z,9.40
2022-10-22T06:57:48.451Z,9.80
2022-10-22T07:00:15.879Z,9.98
2022-10-22T07:02:50.141Z,7.03
2022-10-22T07:05:17.479Z,7.40
2022-10-22T07:07:51.069Z,9.00
2022-10-22T07:10:18.588Z,7.93
2022-10-22T07:12:52.149Z,7.25
2022-10-22T07:15:19.949Z,8.65
2022-10-22T07:17:54.270Z,8.40
2022-10-22T07:20:21.928Z,6.25
2022-10-22T07:22:56.528Z,7.50
2022-10-22T07:25:24.259Z,6.75
2022-10-22T07:28:00.259Z,6.57
2022-10-22T07:30:35.319Z,7.75
2022-10-22T07:35:39.798Z,7.45
2022-10-22T07:38:15.261Z,6.68
2022-10-22T07:40:42.738Z,7.15
2022-10-22T07:43:16.479Z,7.63
2022-10-22T07:45:43.909Z,8.93
2022-10-22T07:48:18.158Z,7.28
2022-10-22T07:50:45.415Z,13.37
2022-10-22T07:53:19.469Z,11.00
2022-10-22T07:55:50.097Z,12.02
2022-10-22T07:58:25.194Z,9.80
2022-10-22T08:03:29.349Z,11.70
2022-10-22T08:06:03.168Z,9.10
2022-10-22T08:08:31.103Z,9.20
2022-10-22T08:11:07.229Z,13.35
2022-10-22T08:13:45.027Z,9.48
2022-10-22T08:16:13.240Z,9.13
2022-10-22T08:18:47.270Z,9.05
2022-10-22T08:21:14.578Z,7.85
2022-10-22T08:23:49.204Z,7.95
2022-10-22T08:26:16.562Z,6.45
2022-10-22T08:28:57.221Z,7.68
2022-10-22T08:31:24.512Z,6.90
2022-10-22T08:33:58.173Z,7.38
2022-10-22T08:36:25.471Z,5.88
2022-10-22T08:38:59.176Z,7.68
2022-10-22T08:41:27.182Z,9.02
2022-10-22T08:44:01.192Z,9.95
2022-10-22T08:46:53.196Z,11.07
2022-10-22T08:49:42.087Z,6.75
2022-10-22T08:52:18.418Z,10.65
2022-10-22T08:55:05.201Z,8.80
2022-10-22T08:57:39.699Z,8.27
2022-10-22T09:00:27.066Z,9.75
2022-10-22T09:03:14.742Z,9.25
2022-10-22T09:06:22.279Z,9.15
2022-10-22T09:08:56.282Z,7.40
2022-10-22T09:11:32.459Z,8.90
2022-10-22T09:14:08.136Z,8.98
2022-10-22T09:16:52.157Z,5.88
2022-10-22T09:19:39.121Z,5.63
2022-10-22T09:22:39.343Z,6.57
2022-10-22T09:25:25.501Z,6.03
2022-10-22T09:28:12.517Z,7.68
2022-10-22T09:30:40.698Z,8.05
2022-10-22T09:33:24.018Z,6.63
2022-10-22T09:36:10.112Z,6.75
2022-10-22T09:38:52.201Z,7.10
2022-10-22T09:41:30.128Z,6.88
2022-10-22T09:44:05.227Z,6.95
2022-10-22T09:49:23.222Z,6.57
2022-10-22T09:52:02.326Z,8.77
2022-10-22T09:54:32.388Z,7.18
2022-10-22T09:57:14.203Z,7.05
2022-10-22T09:59:44.704Z,7.30
2022-10-22T10:02:38.342Z,8.52
2022-10-22T10:05:08.624Z,9.27
2022-10-22T10:07:44.726Z,9.88
2022-10-22T10:10:21.743Z,9.27
2022-10-22T10:13:24.355Z,7.72
2022-10-22T10:15:57.810Z,7.82
2022-10-22T10:18:59.284Z,12.07
2022-10-22T10:21:39.743Z,8.35
2022-10-22T10:24:45.548Z,6.28
2022-10-22T10:27:54.270Z,8.18
2022-10-22T10:30:28.146Z,8.77
2022-10-22T10:33:26.663Z,6.90
2022-10-22T10:36:13.183Z,8.63
2022-10-22T10:39:12.563Z,7.38
2022-10-22T10:42:12.234Z,5.78
2022-10-22T10:45:05.043Z,6.85
2022-10-22T10:47:48.269Z,7.78
2022-10-22T10:51:01.313Z,5.95
2022-10-22T10:54:03.528Z,5.45
2022-10-22T10:56:50.104Z,5.85
2022-10-22T10:59:29.399Z,5.40
2022-10-22T11:02:27.426Z,9.90
2022-10-22T11:05:32.324Z,6.63
2022-10-22T11:08:18.064Z,7.38
2022-10-22T11:10:56.543Z,6.28
2022-10-22T11:13:30.364Z,5.47
2022-10-22T11:16:20.509Z,5.30
2022-10-22T11:19:22.731Z,4.55
2022-10-22T11:22:23.431Z,6.10
2022-10-22T11:25:42.283Z,5.80
2022-10-22T11:28:37.175Z,5.87
2022-10-22T11:31:25.603Z,5.38
2022-10-22T11:34:33.715Z,4.53
2022-10-22T11:37:10.344Z,6.47
2022-10-22T11:40:01.503Z,9.18
2022-10-22T11:42:38.174Z,6.30
2022-10-22T11:45:32.325Z,5.68
2022-10-22T11:48:11.484Z,6.32
2022-10-22T11:51:07.309Z,6.47
2022-10-22T11:56:17.624Z,6.73
2022-10-22T11:58:54.674Z,7.28
2022-10-22T12:04:40.107Z,6.78
2022-10-22T12:07:54.204Z,7.13
2022-10-22T12:10:26.369Z,6.53
2022-10-22T12:13:12.544Z,7.60
2022-10-22T12:15:56.324Z,7.53
2022-10-22T12:18:29.124Z,6.05
2022-10-22T12:21:03.264Z,4.13
2022-10-22T12:23:34.644Z,5.77
2022-10-22T12:26:10.595Z,6.20
2022-10-22T12:28:54.284Z,6.15
2022-10-22T12:31:29.324Z,5.47
2022-10-22T12:36:40.315Z,6.37
2022-10-22T12:39:17.325Z,4.60
2022-10-22T12:41:52.167Z,5.32
2022-10-22T12:44:26.316Z,5.20
2022-10-22T12:46:56.964Z,6.40
2022-10-22T12:49:42.305Z,8.05
2022-10-22T12:52:26.276Z,4.57
2022-10-22T12:54:55.208Z,3.75
2022-10-22T12:57:29.312Z,4.53
2022-10-22T13:00:03.297Z,4.18
2022-10-22T13:02:37.214Z,3.88
2022-10-22T13:05:24.437Z,5.00
2022-10-22T13:08:01.454Z,2.72
2022-10-22T13:10:41.276Z,3.53
2022-10-22T13:13:28.695Z,2.78
2022-10-22T13:16:03.225Z,2.40
2022-10-22T13:18:41.486Z,2.58
2022-10-22T13:21:29.244Z,2.58
2022-10-22T13:24:09.195Z,3.22
2022-10-22T13:26:44.293Z,1.58
2022-10-22T13:32:00.211Z,1.73
2022-10-22T13:34:28.374Z,1.67
2022-10-22T13:37:02.495Z,1.58
2022-10-22T13:39:29.980Z,0.90
2022-10-22T13:42:04.239Z,1.05
2022-10-22T13:44:31.470Z,1.20
2022-10-22T13:47:05.408Z,1.25
2022-10-22T13:49:32.733Z,1.17
2022-10-22T13:52:08.479Z,1.00
2022-10-22T13:54:45.338Z,0.85
2022-10-22T13:57:19.578Z,0.85
2022-10-22T13:59:47.048Z,0.77
2022-10-22T14:02:21.388Z,1.50
2022-10-22T14:04:48.559Z,1.05
2022-10-22T14:07:23.358Z,1.13
2022-10-22T14:09:50.748Z,5.88
2022-10-22T14:12:24.269Z,3.50
2022-10-22T14:14:51.608Z,4.68
2022-10-22T14:17:26.140Z,5.65
2022-10-22T14:20:00.903Z,5.28
2022-10-22T14:22:29.418Z,7.25
2022-10-22T14:25:03.303Z,6.78
2022-10-22T14:27:38.785Z,5.07
2022-10-22T14:30:29.484Z,4.80
2022-10-22T14:33:05.216Z,5.70
2022-10-22T14:35:32.662Z,5.53
2022-10-22T14:38:06.805Z,4.85
2022-10-22T14:40:40.230Z,6.80
2022-10-22T14:43:07.437Z,5.25
2022-10-22T14:45:41.185Z,4.55
2022-10-22T14:48:08.882Z,5.65
2022-10-22T14:50:42.170Z,3.70
2022-10-22T14:53:09.437Z,5.13
2022-10-22T14:55:37.119Z,3.67
2022-10-22T14:58:11.252Z,3.58
2022-10-22T15:00:40.809Z,3.53
2022-10-22T15:03:14.357Z,3.78
2022-10-22T15:05:44.746Z,3.15
2022-10-22T15:08:20.302Z,2.70
2022-10-22T15:11:04.381Z,3.20
2022-10-22T15:13:39.348Z,3.08
2022-10-22T15:16:16.462Z,3.47
2022-10-22T15:18:50.657Z,3.38
2022-10-22T15:21:27.291Z,3.00
2022-10-22T15:23:54.752Z,2.88
2022-10-22T15:26:28.281Z,2.25
2022-10-22T15:29:02.197Z,2.38
2022-10-22T15:31:54.841Z,2.33
2022-10-22T15:34:31.166Z,1.65
2022-10-22T15:37:01.337Z,1.73
2022-10-22T15:39:36.728Z,2.50
2022-10-22T15:42:10.295Z,3.95
2022-10-22T15:44:46.201Z,1.95
2022-10-22T15:47:13.315Z,1.75
2022-10-22T15:49:49.161Z,2.00
2022-10-22T15:52:23.529Z,2.97
2022-10-22T15:54:50.747Z,2.20
2022-10-22T15:57:17.943Z,3.03
2022-10-22T15:59:52.225Z,5.07
2022-10-22T16:02:19.475Z,2.83
2022-10-22T16:04:53.317Z,2.33
2022-10-22T16:07:23.880Z,3.45
2022-10-22T16:10:02.649Z,3.28
2022-10-22T16:12:30.317Z,3.63
2022-10-22T16:15:04.201Z,4.00
2022-10-22T16:17:31.393Z,8.35
2022-10-22T16:20:05.368Z,3.80
2022-10-22T16:22:34.110Z,5.53
2022-10-22T16:25:08.217Z,5.63
2022-10-22T16:27:35.431Z,4.70
2022-10-22T16:30:16.302Z,5.05
2022-10-22T16:32:43.565Z,5.40
2022-10-22T16:35:19.223Z,4.80
2022-10-22T16:37:47.200Z,5.95
2022-10-22T16:40:21.303Z,4.70
2022-10-22T16:42:55.308Z,6.53
2022-10-22T16:45:29.518Z,4.78
2022-10-22T16:47:57.489Z,6.23
2022-10-22T16:50:31.326Z,7.15
2022-10-22T16:52:58.523Z,6.63
2022-10-22T16:55:32.199Z,7.40
2022-10-22T16:57:59.309Z,8.25
2022-10-22T17:00:33.292Z,7.40
2022-10-22T17:03:00.699Z,6.78
2022-10-22T17:05:34.286Z,7.90
2022-10-22T17:08:01.984Z,7.53
2022-10-22T17:10:36.446Z,7.50
2022-10-22T17:13:04.516Z,6.53
2022-10-22T17:15:39.262Z,7.03
2022-10-22T17:18:07.968Z,7.18
2022-10-22T17:20:41.529Z,8.73
2022-10-22T17:23:10.422Z,6.57
2022-10-22T17:25:50.279Z,7.32
2022-10-22T17:28:37.199Z,8.10
2022-10-22T17:31:13.379Z,6.00
2022-10-22T17:33:40.700Z,5.65
2022-10-22T17:36:17.905Z,4.00
2022-10-22T17:38:58.474Z,7.88
2022-10-22T17:41:37.355Z,4.88
2022-10-22T17:44:09.367Z,6.68
2022-10-22T17:46:44.355Z,4.75
2022-10-22T17:49:28.654Z,4.88
2022-10-22T17:51:56.907Z,5.53
2022-10-22T17:54:30.313Z,6.45
2022-10-22T17:57:04.536Z,6.25
2022-10-22T17:59:33.134Z,4.87
2022-10-22T18:02:09.259Z,4.50
2022-10-22T18:04:36.758Z,5.18
2022-10-22T18:07:10.874Z,5.60
2022-10-22T18:09:39.394Z,7.35
2022-10-22T18:12:13.764Z,5.88
2022-10-22T18:14:41.556Z,4.88
2022-10-22T18:17:18.255Z,5.95
2022-10-22T18:19:46.854Z,5.45
2022-10-22T18:22:21.714Z,4.68
2022-10-22T18:24:49.213Z,5.20
2022-10-22T18:27:23.494Z,5.95
2022-10-22T18:30:04.614Z,4.60
2022-10-22T18:32:40.613Z,7.60
2022-10-22T18:35:15.339Z,7.07
2022-10-22T18:37:43.042Z,6.90
2022-10-22T18:40:17.479Z,7.50
2022-10-22T18:42:46.158Z,7.90
2022-10-22T18:45:20.394Z,7.88
2022-10-22T18:47:47.894Z,8.20
2022-10-22T18:50:15.494Z,8.55
2022-10-22T18:52:49.493Z,9.20
2022-10-22T18:55:17.036Z,10.38
2022-10-22T18:57:52.336Z,11.98
2022-10-22T19:00:20.079Z,13.93
2022-10-22T19:02:55.414Z,14.68
2022-10-22T19:05:30.073Z,18.75
2022-10-22T19:08:04.415Z,14.10
2022-10-22T19:10:34.694Z,17.67
2022-10-22T19:13:08.334Z,16.63
2022-10-22T19:15:35.564Z,20.98
2022-10-22T19:18:09.314Z,17.85
2022-10-22T19:20:37.434Z,14.82
2022-10-22T19:23:11.889Z,14.82
2022-10-22T19:25:39.414Z,18.48
2022-10-22T19:28:14.490Z,15.32
2022-10-22T19:33:22.855Z,12.50
2022-10-22T19:35:57.691Z,11.05
2022-10-22T19:38:49.021Z,10.88
2022-10-22T19:41:32.337Z,10.13
2022-10-22T19:44:22.895Z,8.50
2022-10-22T19:46:50.710Z,11.18
2022-10-22T19:49:25.568Z,8.25
2022-10-22T19:51:52.944Z,10.05
2022-10-22T19:54:27.389Z,8.75
2022-10-22T19:56:55.115Z,5.93
2022-10-22T19:59:32.237Z,4.85
2022-10-22T20:02:00.618Z,6.82
2022-10-22T20:04:36.569Z,8.57
2022-10-22T20:07:05.114Z,6.30
2022-10-22T20:09:40.852Z,7.63
2022-10-22T20:12:15.715Z,7.05
2022-10-22T20:14:51.574Z,7.10
2022-10-22T20:17:25.350Z,6.43
2022-10-22T20:19:53.204Z,5.82
2022-10-22T20:22:27.524Z,6.18
2022-10-22T20:24:56.364Z,6.03
2022-10-22T20:27:30.711Z,7.05
2022-10-22T20:30:04.402Z,5.85
2022-10-22T20:32:38.589Z,7.13
2022-10-22T20:35:14.839Z,6.20
2022-10-22T20:37:49.340Z,9.43
2022-10-22T20:40:16.889Z,5.63
2022-10-22T20:42:50.275Z,5.20
2022-10-22T20:45:17.888Z,8.15
2022-10-22T20:47:58.344Z,8.23
2022-10-22T20:50:40.279Z,8.83
2022-10-22T20:53:07.904Z,8.70
2022-10-22T20:55:42.303Z,6.47
2022-10-22T20:58:16.285Z,9.20
2022-10-22T21:00:44.485Z,6.50
2022-10-22T21:03:19.484Z,9.32
2022-10-22T21:08:24.343Z,9.30
2022-10-22T21:10:51.879Z,6.82
2022-10-22T21:13:26.357Z,7.03
2022-10-22T21:15:53.582Z,8.20
2022-10-22T21:18:27.278Z,9.20
2022-10-22T21:21:01.334Z,7.60
2022-10-22T21:23:28.748Z,6.20
2022-10-22T21:26:04.278Z,6.18
2022-10-22T21:28:52.349Z,6.75
2022-10-22T21:31:28.395Z,6.03
2022-10-22T21:33:55.973Z,6.45
2022-10-22T21:36:30.500Z,6.35
2022-10-22T21:38:58.133Z,7.30
2022-10-22T21:41:32.360Z,6.18
2022-10-22T21:44:00.444Z,6.40
2022-10-22T21:46:36.503Z,5.93
2022-10-22T21:49:11.349Z,6.85
2022-10-22T21:51:38.693Z,5.22
2022-10-22T21:54:12.379Z,6.60
2022-10-22T21:56:39.862Z,5.10
2022-10-22T21:59:14.315Z,5.55
2022-10-22T22:01:41.562Z,4.15
2022-10-22T22:04:15.275Z,4.63
2022-10-22T22:06:42.628Z,6.22
2022-10-22T22:09:16.407Z,6.32
2022-10-22T22:11:43.733Z,4.63
2022-10-22T22:14:18.341Z,4.90
2022-10-22T22:16:45.957Z,5.45
2022-10-22T22:19:19.553Z,5.35
2022-10-22T22:21:53.398Z,4.70
2022-10-22T22:24:27.372Z,3.92
2022-10-22T22:27:01.394Z,5.93
2022-10-22T22:29:48.402Z,6.85
2022-10-22T22:32:22.489Z,6.70
2022-10-22T22:34:56.537Z,3.63
2022-10-22T22:37:31.388Z,4.43
2022-10-22T22:40:05.823Z,4.85
2022-10-22T22:42:39.374Z,4.93
2022-10-22T22:45:13.536Z,4.13
2022-10-22T22:47:47.448Z,4.60
2022-10-22T22:50:21.418Z,5.00
2022-10-22T22:52:48.778Z,4.20
2022-10-22T22:55:24.399Z,3.42
2022-10-22T22:57:51.447Z,5.50
2022-10-22T23:00:25.375Z,3.67
2022-10-22T23:02:56.527Z,4.72
2022-10-22T23:05:30.371Z,3.90
2022-10-22T23:07:57.715Z,4.65
2022-10-22T23:10:31.506Z,4.40
2022-10-22T23:12:58.661Z,4.45
2022-10-22T23:15:32.304Z,4.13
2022-10-22T23:18:06.433Z,3.38
2022-10-22T23:20:40.416Z,3.75
2022-10-22T23:23:08.002Z,3.92
2022-10-22T23:25:41.380Z,4.40
2022-10-22T23:28:08.424Z,4.43
2022-10-22T23:30:52.707Z,4.82
2022-10-22T23:33:26.529Z,3.15
2022-10-22T23:36:01.039Z,5.20
2022-10-22T23:38:37.208Z,4.28
2022-10-22T23:41:05.857Z,3.20
2022-10-22T23:43:44.517Z,2.95
2022-10-22T23:46:21.439Z,3.83
2022-10-22T23:48:49.300Z,4.05
2022-10-22T23:51:24.515Z,4.40
2022-10-22T23:54:11.289Z,3.70
2022-10-22T23:56:45.329Z,2.63
